sensor_id;sensor_type;location;lat;lon;timestamp;P1;durP1;ratioP1;P2;durP2;ratioP2
23718;SDS011;43322;52.230;5.702;2023-01-16T00:01:43;2.20;;;2.00;;
23718;SDS011;43322;52.230;5.702;2023-01-16T00:04:11;4.88;;;1.85;;
23718;SDS011;43322;52.230;5.702;2023-01-16T00:06:38;4.82;;;2.00;;
23718;SDS011;43322;52.230;5.702;2023-01-16T00:09:05;3.97;;;2.33;;
23718;SDS011;43322;52.230;5.702;2023-01-16T00:11:34;2.65;;;2.22;;
23718;SDS011;43322;52.230;5.702;2023-01-16T00:14:01;2.47;;;2.28;;
23718;SDS011;43322;52.230;5.702;2023-01-16T00:16:27;4.72;;;2.50;;
23718;SDS011;43322;52.230;5.702;2023-01-16T00:18:55;5.30;;;2.50;;
23718;SDS011;43322;52.230;5.702;2023-01-16T00:21:23;5.95;;;2.50;;
23718;SDS011;43322;52.230;5.702;2023-01-16T00:23:53;5.28;;;2.80;;
23718;SDS011;43322;52.230;5.702;2023-01-16T00:26:21;3.38;;;2.30;;
23718;SDS011;43322;52.230;5.702;2023-01-16T00:28:50;4.15;;;2.50;;
23718;SDS011;43322;52.230;5.702;2023-01-16T00:31:17;5.28;;;2.70;;
23718;SDS011;43322;52.230;5.702;2023-01-16T00:33:44;3.67;;;2.75;;
23718;SDS011;43322;52.230;5.702;2023-01-16T00:36:11;2.50;;;2.33;;
23718;SDS011;43322;52.230;5.702;2023-01-16T00:38:40;3.60;;;2.45;;
23718;SDS011;43322;52.230;5.702;2023-01-16T00:41:07;5.95;;;2.70;;
23718;SDS011;43322;52.230;5.702;2023-01-16T00:43:34;5.15;;;2.90;;
23718;SDS011;43322;52.230;5.702;2023-01-16T00:46:01;3.45;;;3.15;;
23718;SDS011;43322;52.230;5.702;2023-01-16T00:48:28;5.20;;;3.25;;
23718;SDS011;43322;52.230;5.702;2023-01-16T00:50:55;5.28;;;3.67;;
23718;SDS011;43322;52.230;5.702;2023-01-16T00:53:21;7.70;;;4.10;;
23718;SDS011;43322;52.230;5.702;2023-01-16T00:55:51;5.20;;;3.45;;
23718;SDS011;43322;52.230;5.702;2023-01-16T00:58:18;7.40;;;3.70;;
23718;SDS011;43322;52.230;5.702;2023-01-16T01:00:45;4.50;;;3.70;;
23718;SDS011;43322;52.230;5.702;2023-01-16T01:03:12;5.60;;;4.28;;
23718;SDS011;43322;52.230;5.702;2023-01-16T01:05:39;4.38;;;4.03;;
23718;SDS011;43322;52.230;5.702;2023-01-16T01:08:06;4.07;;;3.78;;
23718;SDS011;43322;52.230;5.702;2023-01-16T01:10:35;5.15;;;4.10;;
23718;SDS011;43322;52.230;5.702;2023-01-16T01:13:04;5.45;;;4.95;;
23718;SDS011;43322;52.230;5.702;2023-01-16T01:15:31;8.20;;;5.18;;
23718;SDS011;43322;52.230;5.702;2023-01-16T01:17:59;5.30;;;4.90;;
23718;SDS011;43322;52.230;5.702;2023-01-16T01:20:25;5.22;;;4.85;;
23718;SDS011;43322;52.230;5.702;2023-01-16T01:22:52;8.40;;;5.20;;
23718;SDS011;43322;52.230;5.702;2023-01-16T01:25:19;7.78;;;6.32;;
23718;SDS011;43322;52.230;5.702;2023-01-16T01:27:46;9.73;;;6.50;;
23718;SDS011;43322;52.230;5.702;2023-01-16T01:30:15;7.88;;;6.05;;
23718;SDS011;43322;52.230;5.702;2023-01-16T01:32:42;8.13;;;6.82;;
23718;SDS011;43322;52.230;5.702;2023-01-16T01:35:20;7.15;;;6.45;;
23718;SDS011;43322;52.230;5.702;2023-01-16T01:37:47;9.30;;;7.07;;
23718;SDS011;43322;52.230;5.702;2023-01-16T01:40:13;7.65;;;6.93;;
23718;SDS011;43322;52.230;5.702;2023-01-16T01:42:40;9.82;;;7.40;;
23718;SDS011;43322;52.230;5.702;2023-01-16T01:45:18;9.30;;;7.55;;
23718;SDS011;43322;52.230;5.702;2023-01-16T01:47:47;11.18;;;8.02;;
23718;SDS011;43322;52.230;5.702;2023-01-16T01:50:22;8.75;;;7.82;;
23718;SDS011;43322;52.230;5.702;2023-01-16T01:52:58;10.57;;;8.30;;
23718;SDS011;43322;52.230;5.702;2023-01-16T01:55:27;10.45;;;8.43;;
23718;SDS011;43322;52.230;5.702;2023-01-16T01:57:54;10.70;;;8.90;;
23718;SDS011;43322;52.230;5.702;2023-01-16T02:00:25;10.25;;;9.02;;
23718;SDS011;43322;52.230;5.702;2023-01-16T02:02:55;10.43;;;9.20;;
23718;SDS011;43322;52.230;5.702;2023-01-16T02:05:28;13.65;;;10.65;;
23718;SDS011;43322;52.230;5.702;2023-01-16T02:07:58;17.33;;;12.55;;
23718;SDS011;43322;52.230;5.702;2023-01-16T02:10:29;20.30;;;12.68;;
23718;SDS011;43322;52.230;5.702;2023-01-16T02:13:00;15.68;;;12.80;;
23718;SDS011;43322;52.230;5.702;2023-01-16T02:15:29;20.35;;;14.13;;
23718;SDS011;43322;52.230;5.702;2023-01-16T02:17:56;21.77;;;13.98;;
23718;SDS011;43322;52.230;5.702;2023-01-16T02:20:46;17.40;;;13.45;;
23718;SDS011;43322;52.230;5.702;2023-01-16T02:23:38;17.95;;;13.27;;
23718;SDS011;43322;52.230;5.702;2023-01-16T02:26:38;14.25;;;12.85;;
23718;SDS011;43322;52.230;5.702;2023-01-16T02:32:23;16.98;;;12.95;;
23718;SDS011;43322;52.230;5.702;2023-01-16T02:35:01;16.90;;;12.55;;
23718;SDS011;43322;52.230;5.702;2023-01-16T02:37:42;14.88;;;11.27;;
23718;SDS011;43322;52.230;5.702;2023-01-16T02:40:16;10.75;;;9.45;;
23718;SDS011;43322;52.230;5.702;2023-01-16T02:42:53;13.80;;;9.45;;
23718;SDS011;43322;52.230;5.702;2023-01-16T02:45:29;13.13;;;9.52;;
23718;SDS011;43322;52.230;5.702;2023-01-16T02:48:08;11.05;;;8.90;;
23718;SDS011;43322;52.230;5.702;2023-01-16T02:50:39;11.23;;;8.18;;
23718;SDS011;43322;52.230;5.702;2023-01-16T02:53:14;16.77;;;8.02;;
23718;SDS011;43322;52.230;5.702;2023-01-16T02:55:45;8.73;;;7.53;;
23718;SDS011;43322;52.230;5.702;2023-01-16T02:58:16;11.25;;;8.43;;
23718;SDS011;43322;52.230;5.702;2023-01-16T03:00:48;13.55;;;7.82;;
23718;SDS011;43322;52.230;5.702;2023-01-16T03:06:27;10.98;;;7.63;;
23718;SDS011;43322;52.230;5.702;2023-01-16T03:09:03;13.77;;;7.25;;
23718;SDS011;43322;52.230;5.702;2023-01-16T03:11:47;11.07;;;7.25;;
23718;SDS011;43322;52.230;5.702;2023-01-16T03:14:28;7.80;;;7.07;;
23718;SDS011;43322;52.230;5.702;2023-01-16T03:17:08;11.75;;;7.95;;
23718;SDS011;43322;52.230;5.702;2023-01-16T03:19:52;12.68;;;7.40;;
23718;SDS011;43322;52.230;5.702;2023-01-16T03:22:30;11.98;;;7.13;;
23718;SDS011;43322;52.230;5.702;2023-01-16T03:25:07;9.18;;;6.80;;
23718;SDS011;43322;52.230;5.702;2023-01-16T03:27:44;10.40;;;6.88;;
23718;SDS011;43322;52.230;5.702;2023-01-16T03:30:21;8.32;;;5.55;;
23718;SDS011;43322;52.230;5.702;2023-01-16T03:32:56;6.93;;;5.13;;
23718;SDS011;43322;52.230;5.702;2023-01-16T03:35:29;5.63;;;5.15;;
23718;SDS011;43322;52.230;5.702;2023-01-16T03:38:01;6.78;;;5.20;;
23718;SDS011;43322;52.230;5.702;2023-01-16T03:40:33;6.90;;;4.43;;
23718;SDS011;43322;52.230;5.702;2023-01-16T03:43:04;6.93;;;4.10;;
23718;SDS011;43322;52.230;5.702;2023-01-16T03:45:35;6.85;;;4.15;;
23718;SDS011;43322;52.230;5.702;2023-01-16T03:48:08;7.25;;;3.55;;
23718;SDS011;43322;52.230;5.702;2023-01-16T03:50:41;9.93;;;3.95;;
23718;SDS011;43322;52.230;5.702;2023-01-16T03:53:11;7.28;;;3.45;;
23718;SDS011;43322;52.230;5.702;2023-01-16T03:55:41;3.60;;;2.92;;
23718;SDS011;43322;52.230;5.702;2023-01-16T03:58:13;3.53;;;3.00;;
23718;SDS011;43322;52.230;5.702;2023-01-16T04:00:46;3.28;;;2.78;;
23718;SDS011;43322;52.230;5.702;2023-01-16T04:03:19;4.35;;;2.80;;
23718;SDS011;43322;52.230;5.702;2023-01-16T04:05:53;7.82;;;3.03;;
23718;SDS011;43322;52.230;5.702;2023-01-16T04:08:25;3.50;;;2.67;;
23718;SDS011;43322;52.230;5.702;2023-01-16T04:10:55;4.47;;;2.45;;
23718;SDS011;43322;52.230;5.702;2023-01-16T04:13:22;6.43;;;3.05;;
23718;SDS011;43322;52.230;5.702;2023-01-16T04:15:55;2.70;;;2.25;;
23718;SDS011;43322;52.230;5.702;2023-01-16T04:18:28;3.53;;;2.53;;
23718;SDS011;43322;52.230;5.702;2023-01-16T04:21:02;5.05;;;2.60;;
23718;SDS011;43322;52.230;5.702;2023-01-16T04:23:30;3.30;;;2.42;;
23718;SDS011;43322;52.230;5.702;2023-01-16T04:25:57;3.13;;;2.30;;
23718;SDS011;43322;52.230;5.702;2023-01-16T04:28:23;5.07;;;2.70;;
23718;SDS011;43322;52.230;5.702;2023-01-16T04:30:50;2.35;;;2.20;;
23718;SDS011;43322;52.230;5.702;2023-01-16T04:33:17;3.85;;;2.45;;
23718;SDS011;43322;52.230;5.702;2023-01-16T04:35:44;4.10;;;2.45;;
23718;SDS011;43322;52.230;5.702;2023-01-16T04:38:12;9.60;;;2.70;;
23718;SDS011;43322;52.230;5.702;2023-01-16T04:40:39;6.85;;;2.22;;
23718;SDS011;43322;52.230;5.702;2023-01-16T04:43:06;4.82;;;2.15;;
23718;SDS011;43322;52.230;5.702;2023-01-16T04:45:33;5.55;;;2.47;;
23718;SDS011;43322;52.230;5.702;2023-01-16T04:47:59;5.90;;;2.58;;
23718;SDS011;43322;52.230;5.702;2023-01-16T04:50:26;5.70;;;2.17;;
23718;SDS011;43322;52.230;5.702;2023-01-16T04:52:53;5.30;;;2.78;;
23718;SDS011;43322;52.230;5.702;2023-01-16T04:55:21;5.57;;;2.28;;
23718;SDS011;43322;52.230;5.702;2023-01-16T04:57:49;6.55;;;2.38;;
23718;SDS011;43322;52.230;5.702;2023-01-16T05:00:16;7.13;;;2.53;;
23718;SDS011;43322;52.230;5.702;2023-01-16T05:02:43;3.75;;;1.88;;
23718;SDS011;43322;52.230;5.702;2023-01-16T05:05:10;5.35;;;2.58;;
23718;SDS011;43322;52.230;5.702;2023-01-16T05:07:37;5.40;;;1.90;;
23718;SDS011;43322;52.230;5.702;2023-01-16T05:10:04;3.97;;;1.70;;
23718;SDS011;43322;52.230;5.702;2023-01-16T05:12:32;7.18;;;1.60;;
23718;SDS011;43322;52.230;5.702;2023-01-16T05:14:59;6.07;;;2.05;;
23718;SDS011;43322;52.230;5.702;2023-01-16T05:17:26;5.90;;;1.63;;
23718;SDS011;43322;52.230;5.702;2023-01-16T05:19:52;2.95;;;1.77;;
23718;SDS011;43322;52.230;5.702;2023-01-16T05:22:19;5.72;;;2.25;;
23718;SDS011;43322;52.230;5.702;2023-01-16T05:24:46;4.60;;;1.77;;
23718;SDS011;43322;52.230;5.702;2023-01-16T05:27:13;6.25;;;1.50;;
23718;SDS011;43322;52.230;5.702;2023-01-16T05:29:41;5.32;;;1.90;;
23718;SDS011;43322;52.230;5.702;2023-01-16T05:32:08;5.85;;;1.75;;
23718;SDS011;43322;52.230;5.702;2023-01-16T05:34:35;3.45;;;1.80;;
23718;SDS011;43322;52.230;5.702;2023-01-16T05:37:02;3.40;;;2.03;;
23718;SDS011;43322;52.230;5.702;2023-01-16T05:39:28;6.05;;;1.77;;
23718;SDS011;43322;52.230;5.702;2023-01-16T05:41:55;3.78;;;1.77;;
23718;SDS011;43322;52.230;5.702;2023-01-16T05:44:22;4.43;;;2.00;;
23718;SDS011;43322;52.230;5.702;2023-01-16T05:46:50;7.85;;;2.05;;
23718;SDS011;43322;52.230;5.702;2023-01-16T05:49:17;6.38;;;2.45;;
23718;SDS011;43322;52.230;5.702;2023-01-16T05:51:44;6.88;;;2.33;;
23718;SDS011;43322;52.230;5.702;2023-01-16T05:54:10;6.82;;;2.15;;
23718;SDS011;43322;52.230;5.702;2023-01-16T05:56:37;5.18;;;2.30;;
23718;SDS011;43322;52.230;5.702;2023-01-16T05:59:04;7.75;;;2.63;;
23718;SDS011;43322;52.230;5.702;2023-01-16T06:01:31;5.95;;;2.50;;
23718;SDS011;43322;52.230;5.702;2023-01-16T06:04:00;7.35;;;2.30;;
23718;SDS011;43322;52.230;5.702;2023-01-16T06:06:27;4.45;;;2.55;;
23718;SDS011;43322;52.230;5.702;2023-01-16T06:08:54;6.40;;;2.38;;
23718;SDS011;43322;52.230;5.702;2023-01-16T06:11:21;4.32;;;2.15;;
23718;SDS011;43322;52.230;5.702;2023-01-16T06:13:47;5.93;;;2.20;;
23718;SDS011;43322;52.230;5.702;2023-01-16T06:16:14;5.70;;;2.17;;
23718;SDS011;43322;52.230;5.702;2023-01-16T06:18:41;10.73;;;2.50;;
23718;SDS011;43322;52.230;5.702;2023-01-16T06:21:09;4.13;;;2.05;;
23718;SDS011;43322;52.230;5.702;2023-01-16T06:23:36;7.25;;;2.03;;
23718;SDS011;43322;52.230;5.702;2023-01-16T06:26:02;10.20;;;2.63;;
23718;SDS011;43322;52.230;5.702;2023-01-16T06:28:30;4.38;;;2.05;;
23718;SDS011;43322;52.230;5.702;2023-01-16T06:30:57;6.63;;;2.25;;
23718;SDS011;43322;52.230;5.702;2023-01-16T06:33:24;8.23;;;2.13;;
23718;SDS011;43322;52.230;5.702;2023-01-16T06:35:51;3.88;;;2.15;;
23718;SDS011;43322;52.230;5.702;2023-01-16T06:38:19;2.95;;;1.80;;
23718;SDS011;43322;52.230;5.702;2023-01-16T06:40:46;5.15;;;2.08;;
23718;SDS011;43322;52.230;5.702;2023-01-16T06:43:13;8.63;;;2.08;;
23718;SDS011;43322;52.230;5.702;2023-01-16T06:45:41;9.02;;;2.40;;
23718;SDS011;43322;52.230;5.702;2023-01-16T06:48:10;6.00;;;2.13;;
23718;SDS011;43322;52.230;5.702;2023-01-16T06:50:36;3.47;;;1.88;;
23718;SDS011;43322;52.230;5.702;2023-01-16T06:53:04;5.53;;;1.92;;
23718;SDS011;43322;52.230;5.702;2023-01-16T06:55:32;3.47;;;1.80;;
23718;SDS011;43322;52.230;5.702;2023-01-16T06:57:59;5.28;;;1.70;;
23718;SDS011;43322;52.230;5.702;2023-01-16T07:00:26;5.63;;;2.15;;
23718;SDS011;43322;52.230;5.702;2023-01-16T07:02:53;7.22;;;1.90;;
23718;SDS011;43322;52.230;5.702;2023-01-16T07:05:21;4.20;;;1.83;;
23718;SDS011;43322;52.230;5.702;2023-01-16T07:07:49;8.60;;;2.05;;
23718;SDS011;43322;52.230;5.702;2023-01-16T07:10:17;8.38;;;1.92;;
23718;SDS011;43322;52.230;5.702;2023-01-16T07:12:47;2.38;;;1.42;;
23718;SDS011;43322;52.230;5.702;2023-01-16T07:15:13;3.38;;;1.52;;
23718;SDS011;43322;52.230;5.702;2023-01-16T07:17:58;7.45;;;1.50;;
23718;SDS011;43322;52.230;5.702;2023-01-16T07:20:42;4.40;;;1.55;;
23718;SDS011;43322;52.230;5.702;2023-01-16T07:23:31;2.85;;;1.40;;
23718;SDS011;43322;52.230;5.702;2023-01-16T07:26:01;2.40;;;1.38;;
23718;SDS011;43322;52.230;5.702;2023-01-16T07:28:32;7.13;;;1.88;;
23718;SDS011;43322;52.230;5.702;2023-01-16T07:31:01;6.22;;;1.52;;
23718;SDS011;43322;52.230;5.702;2023-01-16T07:33:28;1.50;;;1.20;;
23718;SDS011;43322;52.230;5.702;2023-01-16T07:35:55;2.92;;;1.33;;
23718;SDS011;43322;52.230;5.702;2023-01-16T07:38:22;3.80;;;1.55;;
23718;SDS011;43322;52.230;5.702;2023-01-16T07:40:49;2.67;;;1.52;;
23718;SDS011;43322;52.230;5.702;2023-01-16T07:43:16;6.43;;;1.27;;
23718;SDS011;43322;52.230;5.702;2023-01-16T07:45:44;1.88;;;1.70;;
23718;SDS011;43322;52.230;5.702;2023-01-16T07:48:17;3.92;;;2.08;;
23718;SDS011;43322;52.230;5.702;2023-01-16T07:50:48;3.40;;;2.08;;
23718;SDS011;43322;52.230;5.702;2023-01-16T07:53:17;7.50;;;2.50;;
23718;SDS011;43322;52.230;5.702;2023-01-16T07:55:47;4.80;;;2.30;;
23718;SDS011;43322;52.230;5.702;2023-01-16T07:58:14;5.68;;;3.03;;
23718;SDS011;43322;52.230;5.702;2023-01-16T08:00:43;5.35;;;3.20;;
23718;SDS011;43322;52.230;5.702;2023-01-16T08:03:10;3.22;;;2.92;;
23718;SDS011;43322;52.230;5.702;2023-01-16T08:05:37;5.55;;;3.25;;
23718;SDS011;43322;52.230;5.702;2023-01-16T08:08:04;3.67;;;3.33;;
23718;SDS011;43322;52.230;5.702;2023-01-16T08:10:31;4.45;;;4.03;;
23718;SDS011;43322;52.230;5.702;2023-01-16T08:12:58;4.30;;;3.90;;
23718;SDS011;43322;52.230;5.702;2023-01-16T08:15:25;4.80;;;3.85;;
23718;SDS011;43322;52.230;5.702;2023-01-16T08:17:53;6.63;;;4.10;;
23718;SDS011;43322;52.230;5.702;2023-01-16T08:20:20;7.82;;;4.07;;
23718;SDS011;43322;52.230;5.702;2023-01-16T08:22:48;4.18;;;3.78;;
23718;SDS011;43322;52.230;5.702;2023-01-16T08:25:16;6.63;;;4.90;;
23718;SDS011;43322;52.230;5.702;2023-01-16T08:27:44;10.23;;;4.00;;
23718;SDS011;43322;52.230;5.702;2023-01-16T08:30:12;7.55;;;4.20;;
23718;SDS011;43322;52.230;5.702;2023-01-16T08:32:39;5.75;;;4.30;;
23718;SDS011;43322;52.230;5.702;2023-01-16T08:35:09;6.30;;;4.22;;
23718;SDS011;43322;52.230;5.702;2023-01-16T08:37:36;5.10;;;4.28;;
23718;SDS011;43322;52.230;5.702;2023-01-16T08:40:03;6.63;;;3.90;;
23718;SDS011;43322;52.230;5.702;2023-01-16T08:42:31;4.35;;;3.53;;
23718;SDS011;43322;52.230;5.702;2023-01-16T08:45:15;7.18;;;3.75;;
23718;SDS011;43322;52.230;5.702;2023-01-16T08:47:58;3.88;;;3.28;;
23718;SDS011;43322;52.230;5.702;2023-01-16T08:50:45;3.58;;;3.10;;
23718;SDS011;43322;52.230;5.702;2023-01-16T08:53:30;5.47;;;3.20;;
23718;SDS011;43322;52.230;5.702;2023-01-16T08:55:57;5.72;;;3.42;;
23718;SDS011;43322;52.230;5.702;2023-01-16T08:58:24;3.78;;;3.47;;
23718;SDS011;43322;52.230;5.702;2023-01-16T09:00:51;4.72;;;3.60;;
23718;SDS011;43322;52.230;5.702;2023-01-16T09:03:18;6.28;;;3.30;;
23718;SDS011;43322;52.230;5.702;2023-01-16T09:05:46;3.10;;;2.90;;
23718;SDS011;43322;52.230;5.702;2023-01-16T09:08:12;4.75;;;3.28;;
23718;SDS011;43322;52.230;5.702;2023-01-16T09:10:39;3.88;;;2.97;;
23718;SDS011;43322;52.230;5.702;2023-01-16T09:13:26;4.60;;;3.05;;
23718;SDS011;43322;52.230;5.702;2023-01-16T09:16:10;4.03;;;2.80;;
23718;SDS011;43322;52.230;5.702;2023-01-16T09:18:37;5.53;;;2.90;;
23718;SDS011;43322;52.230;5.702;2023-01-16T09:21:05;3.67;;;2.85;;
23718;SDS011;43322;52.230;5.702;2023-01-16T09:23:32;4.53;;;2.95;;
23718;SDS011;43322;52.230;5.702;2023-01-16T09:25:59;4.88;;;3.25;;
23718;SDS011;43322;52.230;5.702;2023-01-16T09:28:25;10.38;;;2.80;;
23718;SDS011;43322;52.230;5.702;2023-01-16T09:30:52;3.17;;;2.78;;
23718;SDS011;43322;52.230;5.702;2023-01-16T09:33:19;4.03;;;3.25;;
23718;SDS011;43322;52.230;5.702;2023-01-16T09:35:45;6.35;;;3.40;;
23718;SDS011;43322;52.230;5.702;2023-01-16T09:38:14;4.40;;;3.13;;
23718;SDS011;43322;52.230;5.702;2023-01-16T09:40:42;3.53;;;3.22;;
23718;SDS011;43322;52.230;5.702;2023-01-16T09:43:16;3.63;;;2.83;;
23718;SDS011;43322;52.230;5.702;2023-01-16T09:46:08;5.65;;;3.08;;
23718;SDS011;43322;52.230;5.702;2023-01-16T09:48:39;5.25;;;2.90;;
23718;SDS011;43322;52.230;5.702;2023-01-16T09:51:12;3.15;;;2.90;;
23718;SDS011;43322;52.230;5.702;2023-01-16T09:53:45;3.65;;;3.10;;
23718;SDS011;43322;52.230;5.702;2023-01-16T09:56:34;5.30;;;3.83;;
23718;SDS011;43322;52.230;5.702;2023-01-16T09:59:24;3.50;;;3.10;;
23718;SDS011;43322;52.230;5.702;2023-01-16T10:01:59;6.13;;;3.20;;
23718;SDS011;43322;52.230;5.702;2023-01-16T10:04:33;4.40;;;3.38;;
23718;SDS011;43322;52.230;5.702;2023-01-16T10:07:05;3.92;;;2.92;;
23718;SDS011;43322;52.230;5.702;2023-01-16T10:09:48;5.40;;;3.25;;
23718;SDS011;43322;52.230;5.702;2023-01-16T10:12:21;3.17;;;2.95;;
23718;SDS011;43322;52.230;5.702;2023-01-16T10:14:59;3.15;;;2.92;;
23718;SDS011;43322;52.230;5.702;2023-01-16T10:17:42;3.60;;;3.30;;
23718;SDS011;43322;52.230;5.702;2023-01-16T10:20:24;3.85;;;3.55;;
23718;SDS011;43322;52.230;5.702;2023-01-16T10:23:05;4.97;;;3.83;;
23718;SDS011;43322;52.230;5.702;2023-01-16T10:25:46;6.15;;;3.63;;
23718;SDS011;43322;52.230;5.702;2023-01-16T10:28:23;4.68;;;3.47;;
23718;SDS011;43322;52.230;5.702;2023-01-16T10:30:55;3.50;;;3.20;;
23718;SDS011;43322;52.230;5.702;2023-01-16T10:33:29;3.90;;;3.60;;
23718;SDS011;43322;52.230;5.702;2023-01-16T10:35:59;3.90;;;3.60;;
23718;SDS011;43322;52.230;5.702;2023-01-16T10:38:30;4.85;;;3.30;;
23718;SDS011;43322;52.230;5.702;2023-01-16T10:41:09;5.93;;;3.25;;
23718;SDS011;43322;52.230;5.702;2023-01-16T10:43:56;4.25;;;3.40;;
23718;SDS011;43322;52.230;5.702;2023-01-16T10:46:41;5.07;;;3.13;;
23718;SDS011;43322;52.230;5.702;2023-01-16T10:49:26;3.38;;;3.08;;
23718;SDS011;43322;52.230;5.702;2023-01-16T10:51:53;3.88;;;3.15;;
23718;SDS011;43322;52.230;5.702;2023-01-16T10:54:21;5.35;;;3.03;;
23718;SDS011;43322;52.230;5.702;2023-01-16T10:56:50;3.50;;;3.30;;
23718;SDS011;43322;52.230;5.702;2023-01-16T10:59:17;3.30;;;3.10;;
23718;SDS011;43322;52.230;5.702;2023-01-16T11:01:44;4.32;;;3.20;;
23718;SDS011;43322;52.230;5.702;2023-01-16T11:04:16;2.90;;;2.70;;
23718;SDS011;43322;52.230;5.702;2023-01-16T11:06:44;2.97;;;2.78;;
23718;SDS011;43322;52.230;5.702;2023-01-16T11:09:16;3.03;;;2.78;;
23718;SDS011;43322;52.230;5.702;2023-01-16T11:11:44;2.78;;;2.58;;
23718;SDS011;43322;52.230;5.702;2023-01-16T11:14:35;3.25;;;2.72;;
23718;SDS011;43322;52.230;5.702;2023-01-16T11:17:32;2.92;;;2.72;;
23718;SDS011;43322;52.230;5.702;2023-01-16T11:20:18;2.50;;;2.30;;
23718;SDS011;43322;52.230;5.702;2023-01-16T11:22:47;2.63;;;2.42;;
23718;SDS011;43322;52.230;5.702;2023-01-16T11:25:22;3.30;;;2.70;;
23718;SDS011;43322;52.230;5.702;2023-01-16T11:27:49;2.53;;;2.30;;
23718;SDS011;43322;52.230;5.702;2023-01-16T11:30:19;4.40;;;2.20;;
23718;SDS011;43322;52.230;5.702;2023-01-16T11:32:48;2.20;;;2.10;;
23718;SDS011;43322;52.230;5.702;2023-01-16T11:35:16;3.45;;;2.22;;
23718;SDS011;43322;52.230;5.702;2023-01-16T11:37:45;2.55;;;2.35;;
23718;SDS011;43322;52.230;5.702;2023-01-16T11:40:17;3.22;;;2.30;;
23718;SDS011;43322;52.230;5.702;2023-01-16T11:42:53;2.33;;;2.22;;
23718;SDS011;43322;52.230;5.702;2023-01-16T11:45:42;2.03;;;1.92;;
23718;SDS011;43322;52.230;5.702;2023-01-16T11:48:33;2.25;;;2.15;;
23718;SDS011;43322;52.230;5.702;2023-01-16T11:51:04;2.47;;;2.38;;
23718;SDS011;43322;52.230;5.702;2023-01-16T11:53:33;2.40;;;2.30;;
23718;SDS011;43322;52.230;5.702;2023-01-16T11:56:08;3.25;;;2.20;;
23718;SDS011;43322;52.230;5.702;2023-01-16T11:58:50;3.70;;;2.42;;
23718;SDS011;43322;52.230;5.702;2023-01-16T12:01:34;2.58;;;2.03;;
23718;SDS011;43322;52.230;5.702;2023-01-16T12:04:30;2.78;;;2.35;;
23718;SDS011;43322;52.230;5.702;2023-01-16T12:07:02;5.30;;;2.35;;
23718;SDS011;43322;52.230;5.702;2023-01-16T12:09:42;2.42;;;2.30;;
23718;SDS011;43322;52.230;5.702;2023-01-16T12:12:16;2.13;;;2.03;;
23718;SDS011;43322;52.230;5.702;2023-01-16T12:15:07;2.67;;;2.30;;
23718;SDS011;43322;52.230;5.702;2023-01-16T12:36:14;1.25;;;1.20;;
23718;SDS011;43322;52.230;5.702;2023-01-16T12:38:48;1.30;;;1.10;;
23718;SDS011;43322;52.230;5.702;2023-01-16T12:41:23;1.10;;;1.10;;
23718;SDS011;43322;52.230;5.702;2023-01-16T12:44:15;4.50;;;1.20;;
23718;SDS011;43322;52.230;5.702;2023-01-16T12:47:03;1.20;;;1.10;;
23718;SDS011;43322;52.230;5.702;2023-01-16T12:49:59;2.78;;;1.05;;
23718;SDS011;43322;52.230;5.702;2023-01-16T12:52:39;1.52;;;0.98;;
23718;SDS011;43322;52.230;5.702;2023-01-16T12:55:23;2.08;;;1.38;;
23718;SDS011;43322;52.230;5.702;2023-01-16T12:58:01;1.17;;;1.17;;
23718;SDS011;43322;52.230;5.702;2023-01-16T13:00:37;1.35;;;1.25;;
23718;SDS011;43322;52.230;5.702;2023-01-16T13:03:13;1.20;;;1.10;;
23718;SDS011;43322;52.230;5.702;2023-01-16T13:05:49;2.70;;;1.40;;
23718;SDS011;43322;52.230;5.702;2023-01-16T13:08:22;1.52;;;1.42;;
23718;SDS011;43322;52.230;5.702;2023-01-16T13:10:52;2.42;;;1.50;;
23718;SDS011;43322;52.230;5.702;2023-01-16T13:13:42;1.35;;;1.30;;
23718;SDS011;43322;52.230;5.702;2023-01-16T13:16:20;2.33;;;1.60;;
23718;SDS011;43322;52.230;5.702;2023-01-16T13:18:52;1.67;;;1.58;;
23718;SDS011;43322;52.230;5.702;2023-01-16T13:21:25;1.33;;;1.23;;
23718;SDS011;43322;52.230;5.702;2023-01-16T13:23:56;1.40;;;1.30;;
23718;SDS011;43322;52.230;5.702;2023-01-16T13:26:28;1.60;;;1.50;;
23718;SDS011;43322;52.230;5.702;2023-01-16T13:28:58;2.33;;;1.30;;
23718;SDS011;43322;52.230;5.702;2023-01-16T13:31:32;1.40;;;1.30;;
23718;SDS011;43322;52.230;5.702;2023-01-16T13:34:02;1.40;;;1.30;;
23718;SDS011;43322;52.230;5.702;2023-01-16T13:36:48;1.38;;;1.38;;
23718;SDS011;43322;52.230;5.702;2023-01-16T13:39:41;2.20;;;1.33;;
23718;SDS011;43322;52.230;5.702;2023-01-16T13:42:31;2.42;;;1.30;;
23718;SDS011;43322;52.230;5.702;2023-01-16T13:45:02;1.30;;;1.20;;
23718;SDS011;43322;52.230;5.702;2023-01-16T13:47:51;2.00;;;1.48;;
23718;SDS011;43322;52.230;5.702;2023-01-16T13:50:23;1.52;;;1.48;;
23718;SDS011;43322;52.230;5.702;2023-01-16T13:52:53;1.85;;;1.75;;
23718;SDS011;43322;52.230;5.702;2023-01-16T13:55:26;1.55;;;1.45;;
23718;SDS011;43322;52.230;5.702;2023-01-16T13:57:55;1.15;;;1.15;;
23718;SDS011;43322;52.230;5.702;2023-01-16T14:00:32;1.73;;;1.60;;
23718;SDS011;43322;52.230;5.702;2023-01-16T14:03:01;4.32;;;1.58;;
23718;SDS011;43322;52.230;5.702;2023-01-16T14:05:44;1.48;;;1.38;;
23718;SDS011;43322;52.230;5.702;2023-01-16T14:08:17;2.03;;;1.65;;
23718;SDS011;43322;52.230;5.702;2023-01-16T14:11:27;2.33;;;2.13;;
23718;SDS011;43322;52.230;5.702;2023-01-16T14:14:16;2.00;;;1.88;;
23718;SDS011;43322;52.230;5.702;2023-01-16T14:17:08;1.70;;;1.60;;
23718;SDS011;43322;52.230;5.702;2023-01-16T14:19:35;2.53;;;2.05;;
23718;SDS011;43322;52.230;5.702;2023-01-16T14:22:03;1.70;;;1.60;;
23718;SDS011;43322;52.230;5.702;2023-01-16T14:24:50;1.83;;;1.73;;
23718;SDS011;43322;52.230;5.702;2023-01-16T14:27:21;1.67;;;1.58;;
23718;SDS011;43322;52.230;5.702;2023-01-16T14:29:49;1.90;;;1.80;;
23718;SDS011;43322;52.230;5.702;2023-01-16T14:32:20;1.95;;;1.85;;
23718;SDS011;43322;52.230;5.702;2023-01-16T14:34:51;2.42;;;1.80;;
23718;SDS011;43322;52.230;5.702;2023-01-16T14:37:21;3.60;;;2.00;;
23718;SDS011;43322;52.230;5.702;2023-01-16T14:39:51;1.85;;;1.70;;
23718;SDS011;43322;52.230;5.702;2023-01-16T14:42:26;1.77;;;1.67;;
23718;SDS011;43322;52.230;5.702;2023-01-16T14:48:34;1.55;;;1.45;;
23718;SDS011;43322;52.230;5.702;2023-01-16T14:51:30;1.80;;;1.70;;
23718;SDS011;43322;52.230;5.702;2023-01-16T14:54:16;3.47;;;1.20;;
23718;SDS011;43322;52.230;5.702;2023-01-16T14:57:06;1.52;;;1.42;;
23718;SDS011;43322;52.230;5.702;2023-01-16T14:59:39;2.55;;;1.50;;
23718;SDS011;43322;52.230;5.702;2023-01-16T15:02:11;1.30;;;1.20;;
23718;SDS011;43322;52.230;5.702;2023-01-16T15:04:47;1.60;;;1.50;;
23718;SDS011;43322;52.230;5.702;2023-01-16T15:07:19;1.65;;;1.10;;
23718;SDS011;43322;52.230;5.702;2023-01-16T15:09:54;2.20;;;1.70;;
23718;SDS011;43322;52.230;5.702;2023-01-16T15:12:34;3.00;;;1.63;;
23718;SDS011;43322;52.230;5.702;2023-01-16T15:15:05;1.60;;;1.50;;
23718;SDS011;43322;52.230;5.702;2023-01-16T15:17:48;1.40;;;1.40;;
23718;SDS011;43322;52.230;5.702;2023-01-16T15:20:43;1.98;;;1.88;;
23718;SDS011;43322;52.230;5.702;2023-01-16T15:23:29;2.20;;;1.75;;
23718;SDS011;43322;52.230;5.702;2023-01-16T15:26:06;1.90;;;1.80;;
23718;SDS011;43322;52.230;5.702;2023-01-16T15:28:50;2.13;;;1.80;;
23718;SDS011;43322;52.230;5.702;2023-01-16T15:31:27;1.95;;;1.80;;
23718;SDS011;43322;52.230;5.702;2023-01-16T15:33:58;1.88;;;1.77;;
23718;SDS011;43322;52.230;5.702;2023-01-16T15:36:30;1.90;;;1.80;;
23718;SDS011;43322;52.230;5.702;2023-01-16T15:39:00;2.88;;;1.92;;
23718;SDS011;43322;52.230;5.702;2023-01-16T15:41:44;3.17;;;2.00;;
23718;SDS011;43322;52.230;5.702;2023-01-16T15:44:31;2.28;;;2.17;;
23718;SDS011;43322;52.230;5.702;2023-01-16T15:47:22;2.08;;;1.98;;